METAR AND TAF INFORMATION
METAR FOR LFRC
ADDS - METARS form results

(0742 UTC 09 August 2020)
Data provider http://aviationweather.gov/metar/data/
 
METAR text: LFRC 090730Z AUTO 03007KT 360V070 7000 NSC 20/17 Q1017 TEMPO BKN010
Conditions at: LFRC (CHERBOURG/MAUPER, FR) observed 0730 UTC 09 August 2020
Temperature: 20.0°C (68°F)
Dewpoint: 17.0°C (63°F) [RH = 83%]
Pressure (altimeter): 30.03 inches Hg (1017.0 mb)
Winds: from the NNE (30 degrees) at 8 MPH (7 knots; 3.6 m/s)
Visibility: 4 miles ( 7 km)
Ceiling: at least 12,000 feet AGL
Clouds: sky clear below 12,000 feet AGL
Weather: no significant weather observed at this time

METAR text: LFRC 090700Z AUTO 02006KT 350V050 6000 NSC 19/17 Q1017 TEMPO BKN010
Conditions at: LFRC (CHERBOURG/MAUPER, FR) observed 0700 UTC 09 August 2020
Temperature: 19.0°C (66°F)
Dewpoint: 17.0°C (63°F) [RH = 88%]
Pressure (altimeter): 30.03 inches Hg (1017.0 mb)
Winds: from the NNE (20 degrees) at 7 MPH (6 knots; 3.1 m/s)
Visibility: 4 miles ( 6 km)
Ceiling: at least 12,000 feet AGL
Clouds: sky clear below 12,000 feet AGL
Weather: no significant weather observed at this time

Forecast for: AMD
Text: TAF AMD LFRC 090550Z 0906/0915 VRB03KT 0800 FG NSC
Forecast period: 0600 to 1500 UTC 09 August 2020
Forecast type: FROM: standard forecast or significant change
Winds: variable direction winds at 3 MPH (3 knots; 1.5 m/s)
Visibility: 0.50 miles (0.80 km)
Ceiling: unknown
Clouds: missing
Weather: FG  (fog)
Text: BECMG 0906/0909 CAVOK
Forecast period: 0600 to 1500 UTC 09 August 2020
Forecast type: BECOMING: Conditions expected to become as follows by 0900 UTC 09 August 2020
Winds: variable direction winds at 3 MPH (3 knots; 1.5 m/s)
Visibility: 6 or more miles (10+ km)
Ceiling: unknown
Clouds: missing
Weather: NSW  (no significant weather)
Text: PROB30
Forecast period: 0600 to 1100 UTC 09 August 2020
Forecast type: TEMPORARY: The following changes expected for less than half the time period
Visibility: missing
Ceiling: 1000 feet AGL
Clouds: broken clouds at 1000 feet AGL
Weather: no significant weather forecast for this period
Text: TEMPO 0906/0911 BKN010
Forecast period: 0600 to 1500 UTC 09 August 2020
Forecast type: BECOMING: Conditions expected to become as follows by 0800 UTC 09 August 2020
Winds: from the NNE (20 degrees) at 12 MPH (10 knots; 5.1 m/s)
Visibility: 6 or more miles (10+ km)
Ceiling: unknown
Clouds: missing
Weather: NSW  (no significant weather)

 AIRPORT MAP

 RUNWAY INFORMATION
Runway 10 Runway length 8005 ft Runway width 148 ft
Runway elevation 452 ft Runway displaced threshold 0 ft Runway heading 101
Runway 28 Runway length 8005 ft Runway width 148 ft
Runway elevation 428 ft Runway displaced threshold 0 ft Runway heading 281

 AIRPORT FREQUENCIES
Type APP Name DEAUVILLE Frequency 119.35 MHZ
Type TWR Name CHERBOURG Frequency 119.625 MHZ

 AIRPORT NEAR NAVIGATION AIDS